sensor_id;sensor_type;location;lat;lon;timestamp;P1;durP1;ratioP1;P2;durP2;ratioP2
28653;SDS011;24320;56.980;24.336;2023-07-30T00:00:52;5.82;;;3.17;;
28653;SDS011;24320;56.980;24.336;2023-07-30T00:03:19;6.72;;;3.72;;
28653;SDS011;24320;56.980;24.336;2023-07-30T00:05:55;5.50;;;3.15;;
28653;SDS011;24320;56.980;24.336;2023-07-30T00:08:22;6.95;;;3.50;;
28653;SDS011;24320;56.980;24.336;2023-07-30T00:10:49;5.45;;;3.50;;
28653;SDS011;24320;56.980;24.336;2023-07-30T00:13:17;7.05;;;3.42;;
28653;SDS011;24320;56.980;24.336;2023-07-30T00:15:47;5.10;;;3.53;;
28653;SDS011;24320;56.980;24.336;2023-07-30T00:18:15;6.15;;;3.53;;
28653;SDS011;24320;56.980;24.336;2023-07-30T00:20:42;5.60;;;3.22;;
28653;SDS011;24320;56.980;24.336;2023-07-30T00:23:09;5.25;;;3.05;;
28653;SDS011;24320;56.980;24.336;2023-07-30T00:25:36;4.45;;;3.30;;
28653;SDS011;24320;56.980;24.336;2023-07-30T00:28:03;6.45;;;3.20;;
28653;SDS011;24320;56.980;24.336;2023-07-30T00:30:30;9.70;;;3.22;;
28653;SDS011;24320;56.980;24.336;2023-07-30T00:32:57;6.30;;;2.88;;
28653;SDS011;24320;56.980;24.336;2023-07-30T00:35:24;4.72;;;3.10;;
28653;SDS011;24320;56.980;24.336;2023-07-30T00:37:51;5.55;;;3.35;;
28653;SDS011;24320;56.980;24.336;2023-07-30T00:40:18;5.07;;;3.63;;
28653;SDS011;24320;56.980;24.336;2023-07-30T00:42:45;4.78;;;3.10;;
28653;SDS011;24320;56.980;24.336;2023-07-30T00:45:12;5.45;;;3.30;;
28653;SDS011;24320;56.980;24.336;2023-07-30T00:47:40;5.45;;;2.90;;
28653;SDS011;24320;56.980;24.336;2023-07-30T00:50:08;7.65;;;3.20;;
28653;SDS011;24320;56.980;24.336;2023-07-30T00:52:36;5.55;;;3.25;;
28653;SDS011;24320;56.980;24.336;2023-07-30T00:55:03;5.97;;;3.40;;
28653;SDS011;24320;56.980;24.336;2023-07-30T00:57:31;6.97;;;3.30;;
28653;SDS011;24320;56.980;24.336;2023-07-30T00:59:58;7.13;;;3.70;;
28653;SDS011;24320;56.980;24.336;2023-07-30T01:02:28;6.53;;;3.40;;
28653;SDS011;24320;56.980;24.336;2023-07-30T01:04:57;6.03;;;3.55;;
28653;SDS011;24320;56.980;24.336;2023-07-30T01:07:27;4.88;;;3.45;;
28653;SDS011;24320;56.980;24.336;2023-07-30T01:09:54;5.82;;;3.22;;
28653;SDS011;24320;56.980;24.336;2023-07-30T01:12:21;5.13;;;3.30;;
28653;SDS011;24320;56.980;24.336;2023-07-30T01:14:49;4.72;;;3.20;;
28653;SDS011;24320;56.980;24.336;2023-07-30T01:17:17;7.82;;;3.35;;
28653;SDS011;24320;56.980;24.336;2023-07-30T01:19:45;5.78;;;3.47;;
28653;SDS011;24320;56.980;24.336;2023-07-30T01:22:12;6.72;;;3.08;;
28653;SDS011;24320;56.980;24.336;2023-07-30T01:24:38;4.72;;;3.28;;
28653;SDS011;24320;56.980;24.336;2023-07-30T01:27:06;8.45;;;3.80;;
28653;SDS011;24320;56.980;24.336;2023-07-30T01:29:40;6.80;;;3.55;;
28653;SDS011;24320;56.980;24.336;2023-07-30T01:32:11;6.38;;;3.85;;
28653;SDS011;24320;56.980;24.336;2023-07-30T01:34:40;5.50;;;3.25;;
28653;SDS011;24320;56.980;24.336;2023-07-30T01:37:11;12.63;;;3.78;;
28653;SDS011;24320;56.980;24.336;2023-07-30T01:39:39;5.88;;;3.75;;
28653;SDS011;24320;56.980;24.336;2023-07-30T01:42:07;4.68;;;3.28;;
28653;SDS011;24320;56.980;24.336;2023-07-30T01:44:37;4.55;;;3.22;;
28653;SDS011;24320;56.980;24.336;2023-07-30T01:47:04;6.68;;;3.10;;
28653;SDS011;24320;56.980;24.336;2023-07-30T01:49:31;5.97;;;3.50;;
28653;SDS011;24320;56.980;24.336;2023-07-30T01:51:59;9.38;;;3.70;;
28653;SDS011;24320;56.980;24.336;2023-07-30T01:54:26;6.28;;;3.80;;
28653;SDS011;24320;56.980;24.336;2023-07-30T01:56:53;4.50;;;3.25;;
28653;SDS011;24320;56.980;24.336;2023-07-30T01:59:20;6.07;;;3.22;;
28653;SDS011;24320;56.980;24.336;2023-07-30T02:01:47;5.35;;;3.50;;
28653;SDS011;24320;56.980;24.336;2023-07-30T02:04:14;9.50;;;3.67;;
28653;SDS011;24320;56.980;24.336;2023-07-30T02:06:43;5.05;;;3.47;;
28653;SDS011;24320;56.980;24.336;2023-07-30T02:09:10;5.18;;;3.60;;
28653;SDS011;24320;56.980;24.336;2023-07-30T02:11:37;4.65;;;3.47;;
28653;SDS011;24320;56.980;24.336;2023-07-30T02:14:04;9.68;;;3.13;;
28653;SDS011;24320;56.980;24.336;2023-07-30T02:16:31;5.82;;;3.15;;
28653;SDS011;24320;56.980;24.336;2023-07-30T02:18:58;5.40;;;3.38;;
28653;SDS011;24320;56.980;24.336;2023-07-30T02:21:25;5.00;;;3.45;;
28653;SDS011;24320;56.980;24.336;2023-07-30T02:23:53;4.70;;;3.35;;
28653;SDS011;24320;56.980;24.336;2023-07-30T02:26:20;4.05;;;3.08;;
28653;SDS011;24320;56.980;24.336;2023-07-30T02:28:47;9.55;;;3.55;;
28653;SDS011;24320;56.980;24.336;2023-07-30T02:31:14;4.72;;;3.22;;
28653;SDS011;24320;56.980;24.336;2023-07-30T02:33:41;5.97;;;4.00;;
28653;SDS011;24320;56.980;24.336;2023-07-30T02:36:08;8.35;;;3.78;;
28653;SDS011;24320;56.980;24.336;2023-07-30T02:38:35;6.60;;;3.83;;
28653;SDS011;24320;56.980;24.336;2023-07-30T02:41:02;5.88;;;3.70;;
28653;SDS011;24320;56.980;24.336;2023-07-30T02:43:29;7.15;;;3.90;;
28653;SDS011;24320;56.980;24.336;2023-07-30T02:45:56;5.07;;;4.22;;
28653;SDS011;24320;56.980;24.336;2023-07-30T02:48:23;9.48;;;4.53;;
28653;SDS011;24320;56.980;24.336;2023-07-30T02:50:50;5.88;;;4.00;;
28653;SDS011;24320;56.980;24.336;2023-07-30T02:53:17;5.38;;;4.28;;
28653;SDS011;24320;56.980;24.336;2023-07-30T02:55:44;6.90;;;4.25;;
28653;SDS011;24320;56.980;24.336;2023-07-30T02:58:11;9.77;;;5.07;;
28653;SDS011;24320;56.980;24.336;2023-07-30T03:00:38;8.18;;;4.85;;
28653;SDS011;24320;56.980;24.336;2023-07-30T03:03:05;10.68;;;5.75;;
28653;SDS011;24320;56.980;24.336;2023-07-30T03:05:32;11.02;;;5.45;;
28653;SDS011;24320;56.980;24.336;2023-07-30T03:07:59;11.68;;;5.47;;
28653;SDS011;24320;56.980;24.336;2023-07-30T03:10:27;7.50;;;4.97;;
28653;SDS011;24320;56.980;24.336;2023-07-30T03:12:54;5.75;;;3.97;;
28653;SDS011;24320;56.980;24.336;2023-07-30T03:15:21;6.70;;;3.10;;
28653;SDS011;24320;56.980;24.336;2023-07-30T03:17:48;5.38;;;3.50;;
28653;SDS011;24320;56.980;24.336;2023-07-30T03:20:15;5.43;;;2.75;;
28653;SDS011;24320;56.980;24.336;2023-07-30T03:22:43;4.38;;;2.85;;
28653;SDS011;24320;56.980;24.336;2023-07-30T03:25:10;4.85;;;3.10;;
28653;SDS011;24320;56.980;24.336;2023-07-30T03:27:38;5.03;;;3.05;;
28653;SDS011;24320;56.980;24.336;2023-07-30T03:30:05;6.00;;;3.28;;
28653;SDS011;24320;56.980;24.336;2023-07-30T03:32:32;5.60;;;2.67;;
28653;SDS011;24320;56.980;24.336;2023-07-30T03:34:59;4.15;;;3.00;;
28653;SDS011;24320;56.980;24.336;2023-07-30T03:37:26;3.85;;;2.85;;
28653;SDS011;24320;56.980;24.336;2023-07-30T03:39:53;3.40;;;2.92;;
28653;SDS011;24320;56.980;24.336;2023-07-30T03:42:20;3.75;;;2.83;;
28653;SDS011;24320;56.980;24.336;2023-07-30T03:44:47;6.72;;;2.47;;
28653;SDS011;24320;56.980;24.336;2023-07-30T03:47:15;4.10;;;3.03;;
28653;SDS011;24320;56.980;24.336;2023-07-30T03:49:42;4.88;;;3.28;;
28653;SDS011;24320;56.980;24.336;2023-07-30T03:52:09;2.78;;;2.38;;
28653;SDS011;24320;56.980;24.336;2023-07-30T03:54:52;4.80;;;2.58;;
28653;SDS011;24320;56.980;24.336;2023-07-30T03:57:19;6.95;;;3.20;;
28653;SDS011;24320;56.980;24.336;2023-07-30T03:59:46;4.35;;;2.45;;
28653;SDS011;24320;56.980;24.336;2023-07-30T04:02:13;7.15;;;3.20;;
28653;SDS011;24320;56.980;24.336;2023-07-30T04:04:42;6.28;;;3.00;;
28653;SDS011;24320;56.980;24.336;2023-07-30T04:07:11;5.18;;;2.75;;
28653;SDS011;24320;56.980;24.336;2023-07-30T04:09:38;4.18;;;2.90;;
28653;SDS011;24320;56.980;24.336;2023-07-30T04:12:05;5.82;;;2.97;;
28653;SDS011;24320;56.980;24.336;2023-07-30T04:14:32;4.88;;;2.90;;
28653;SDS011;24320;56.980;24.336;2023-07-30T04:16:59;5.88;;;3.13;;
28653;SDS011;24320;56.980;24.336;2023-07-30T04:19:26;4.07;;;2.47;;
28653;SDS011;24320;56.980;24.336;2023-07-30T04:21:53;3.88;;;2.80;;
28653;SDS011;24320;56.980;24.336;2023-07-30T04:24:20;5.25;;;2.65;;
28653;SDS011;24320;56.980;24.336;2023-07-30T04:26:47;3.47;;;2.80;;
28653;SDS011;24320;56.980;24.336;2023-07-30T04:29:14;6.85;;;2.80;;
28653;SDS011;24320;56.980;24.336;2023-07-30T04:31:43;4.63;;;3.00;;
28653;SDS011;24320;56.980;24.336;2023-07-30T04:34:10;3.78;;;2.63;;
28653;SDS011;24320;56.980;24.336;2023-07-30T04:36:37;5.97;;;2.55;;
28653;SDS011;24320;56.980;24.336;2023-07-30T04:39:04;5.70;;;2.63;;
28653;SDS011;24320;56.980;24.336;2023-07-30T04:41:31;11.38;;;2.45;;
28653;SDS011;24320;56.980;24.336;2023-07-30T04:44:02;3.25;;;2.10;;
28653;SDS011;24320;56.980;24.336;2023-07-30T04:46:29;3.75;;;2.30;;
28653;SDS011;24320;56.980;24.336;2023-07-30T04:48:57;8.48;;;2.50;;
28653;SDS011;24320;56.980;24.336;2023-07-30T04:51:24;5.78;;;2.20;;
28653;SDS011;24320;56.980;24.336;2023-07-30T04:53:51;3.78;;;2.22;;
28653;SDS011;24320;56.980;24.336;2023-07-30T04:56:18;4.15;;;2.38;;
28653;SDS011;24320;56.980;24.336;2023-07-30T04:58:45;6.10;;;2.88;;
28653;SDS011;24320;56.980;24.336;2023-07-30T05:01:12;7.15;;;2.45;;
28653;SDS011;24320;56.980;24.336;2023-07-30T05:03:39;4.53;;;2.33;;
28653;SDS011;24320;56.980;24.336;2023-07-30T05:06:09;5.57;;;2.60;;
28653;SDS011;24320;56.980;24.336;2023-07-30T05:08:36;11.93;;;2.33;;
28653;SDS011;24320;56.980;24.336;2023-07-30T05:11:03;3.97;;;2.03;;
28653;SDS011;24320;56.980;24.336;2023-07-30T05:13:30;3.47;;;2.10;;
28653;SDS011;24320;56.980;24.336;2023-07-30T05:15:57;6.60;;;2.10;;
28653;SDS011;24320;56.980;24.336;2023-07-30T05:18:24;4.10;;;2.13;;
28653;SDS011;24320;56.980;24.336;2023-07-30T05:20:51;4.82;;;2.38;;
28653;SDS011;24320;56.980;24.336;2023-07-30T05:23:19;3.78;;;2.22;;
28653;SDS011;24320;56.980;24.336;2023-07-30T05:25:46;5.07;;;2.30;;
28653;SDS011;24320;56.980;24.336;2023-07-30T05:28:13;3.30;;;1.90;;
28653;SDS011;24320;56.980;24.336;2023-07-30T05:30:40;4.03;;;2.08;;
28653;SDS011;24320;56.980;24.336;2023-07-30T05:33:07;2.53;;;1.85;;
28653;SDS011;24320;56.980;24.336;2023-07-30T05:35:34;4.88;;;2.05;;
28653;SDS011;24320;56.980;24.336;2023-07-30T05:38:01;6.03;;;2.30;;
28653;SDS011;24320;56.980;24.336;2023-07-30T05:40:29;3.90;;;1.90;;
28653;SDS011;24320;56.980;24.336;2023-07-30T05:42:56;3.45;;;1.70;;
28653;SDS011;24320;56.980;24.336;2023-07-30T05:45:23;6.50;;;2.53;;
28653;SDS011;24320;56.980;24.336;2023-07-30T05:47:50;1.85;;;1.60;;
28653;SDS011;24320;56.980;24.336;2023-07-30T05:50:17;6.40;;;1.92;;
28653;SDS011;24320;56.980;24.336;2023-07-30T05:52:44;3.17;;;1.80;;
28653;SDS011;24320;56.980;24.336;2023-07-30T05:55:11;4.82;;;1.73;;
28653;SDS011;24320;56.980;24.336;2023-07-30T05:57:39;2.55;;;1.70;;
28653;SDS011;24320;56.980;24.336;2023-07-30T06:00:06;2.83;;;2.13;;
28653;SDS011;24320;56.980;24.336;2023-07-30T06:02:33;4.90;;;2.20;;
28653;SDS011;24320;56.980;24.336;2023-07-30T06:05:00;2.00;;;1.80;;
28653;SDS011;24320;56.980;24.336;2023-07-30T06:07:27;4.05;;;1.90;;
28653;SDS011;24320;56.980;24.336;2023-07-30T06:09:54;4.45;;;1.85;;
28653;SDS011;24320;56.980;24.336;2023-07-30T06:12:21;2.53;;;2.00;;
28653;SDS011;24320;56.980;24.336;2023-07-30T06:14:48;5.35;;;2.00;;
28653;SDS011;24320;56.980;24.336;2023-07-30T06:17:15;2.55;;;1.70;;
28653;SDS011;24320;56.980;24.336;2023-07-30T06:19:42;4.22;;;1.80;;
28653;SDS011;24320;56.980;24.336;2023-07-30T06:22:09;3.15;;;1.95;;
28653;SDS011;24320;56.980;24.336;2023-07-30T06:24:36;4.43;;;2.38;;
28653;SDS011;24320;56.980;24.336;2023-07-30T06:27:03;2.97;;;1.65;;
28653;SDS011;24320;56.980;24.336;2023-07-30T06:29:31;2.55;;;1.83;;
28653;SDS011;24320;56.980;24.336;2023-07-30T06:31:58;4.38;;;1.77;;
28653;SDS011;24320;56.980;24.336;2023-07-30T06:34:25;5.20;;;2.00;;
28653;SDS011;24320;56.980;24.336;2023-07-30T06:36:52;2.85;;;1.65;;
28653;SDS011;24320;56.980;24.336;2023-07-30T06:39:19;3.03;;;2.05;;
28653;SDS011;24320;56.980;24.336;2023-07-30T06:41:46;2.58;;;1.85;;
28653;SDS011;24320;56.980;24.336;2023-07-30T06:44:13;2.40;;;1.70;;
28653;SDS011;24320;56.980;24.336;2023-07-30T06:46:41;3.10;;;1.73;;
28653;SDS011;24320;56.980;24.336;2023-07-30T06:49:08;3.67;;;1.95;;
28653;SDS011;24320;56.980;24.336;2023-07-30T06:51:35;5.93;;;1.90;;
28653;SDS011;24320;56.980;24.336;2023-07-30T06:54:02;3.13;;;1.90;;
28653;SDS011;24320;56.980;24.336;2023-07-30T06:56:29;5.32;;;1.77;;
28653;SDS011;24320;56.980;24.336;2023-07-30T06:58:56;1.90;;;1.70;;
28653;SDS011;24320;56.980;24.336;2023-07-30T07:01:23;5.00;;;2.38;;
28653;SDS011;24320;56.980;24.336;2023-07-30T07:03:51;3.83;;;1.80;;
28653;SDS011;24320;56.980;24.336;2023-07-30T07:06:18;3.53;;;2.20;;
28653;SDS011;24320;56.980;24.336;2023-07-30T07:08:45;5.13;;;1.88;;
28653;SDS011;24320;56.980;24.336;2023-07-30T07:11:12;3.25;;;1.95;;
28653;SDS011;24320;56.980;24.336;2023-07-30T07:13:39;2.67;;;1.80;;
28653;SDS011;24320;56.980;24.336;2023-07-30T07:16:06;5.38;;;2.00;;
28653;SDS011;24320;56.980;24.336;2023-07-30T07:18:33;2.30;;;2.08;;
28653;SDS011;24320;56.980;24.336;2023-07-30T07:21:00;3.72;;;2.17;;
28653;SDS011;24320;56.980;24.336;2023-07-30T07:23:27;3.15;;;1.90;;
28653;SDS011;24320;56.980;24.336;2023-07-30T07:25:54;3.13;;;2.28;;
28653;SDS011;24320;56.980;24.336;2023-07-30T07:28:22;3.50;;;2.00;;
28653;SDS011;24320;56.980;24.336;2023-07-30T07:30:49;3.45;;;1.95;;
28653;SDS011;24320;56.980;24.336;2023-07-30T07:33:16;3.00;;;2.10;;
28653;SDS011;24320;56.980;24.336;2023-07-30T07:35:43;4.85;;;2.20;;
28653;SDS011;24320;56.980;24.336;2023-07-30T07:38:10;6.13;;;2.88;;
28653;SDS011;24320;56.980;24.336;2023-07-30T07:40:38;4.55;;;2.00;;
28653;SDS011;24320;56.980;24.336;2023-07-30T07:43:09;2.85;;;2.30;;
28653;SDS011;24320;56.980;24.336;2023-07-30T07:45:36;3.88;;;2.15;;
28653;SDS011;24320;56.980;24.336;2023-07-30T07:48:03;7.32;;;2.58;;
28653;SDS011;24320;56.980;24.336;2023-07-30T07:50:30;5.93;;;2.35;;
28653;SDS011;24320;56.980;24.336;2023-07-30T07:52:57;10.80;;;2.88;;
28653;SDS011;24320;56.980;24.336;2023-07-30T07:55:24;3.95;;;2.20;;
28653;SDS011;24320;56.980;24.336;2023-07-30T07:57:51;5.20;;;2.90;;
28653;SDS011;24320;56.980;24.336;2023-07-30T08:00:18;4.03;;;2.17;;
28653;SDS011;24320;56.980;24.336;2023-07-30T08:02:45;3.60;;;2.60;;
28653;SDS011;24320;56.980;24.336;2023-07-30T08:05:18;2.40;;;2.17;;
28653;SDS011;24320;56.980;24.336;2023-07-30T08:07:46;3.97;;;2.67;;
28653;SDS011;24320;56.980;24.336;2023-07-30T08:10:13;5.28;;;2.55;;
28653;SDS011;24320;56.980;24.336;2023-07-30T08:12:41;4.45;;;2.60;;
28653;SDS011;24320;56.980;24.336;2023-07-30T08:15:08;3.50;;;2.30;;
28653;SDS011;24320;56.980;24.336;2023-07-30T08:17:36;6.15;;;2.50;;
28653;SDS011;24320;56.980;24.336;2023-07-30T08:20:03;5.82;;;2.50;;
28653;SDS011;24320;56.980;24.336;2023-07-30T08:22:30;4.50;;;2.63;;
28653;SDS011;24320;56.980;24.336;2023-07-30T08:24:57;5.55;;;2.47;;
28653;SDS011;24320;56.980;24.336;2023-07-30T08:27:24;5.57;;;2.63;;
28653;SDS011;24320;56.980;24.336;2023-07-30T08:29:51;3.55;;;2.53;;
28653;SDS011;24320;56.980;24.336;2023-07-30T08:32:18;3.65;;;2.45;;
28653;SDS011;24320;56.980;24.336;2023-07-30T08:34:45;3.25;;;2.45;;
28653;SDS011;24320;56.980;24.336;2023-07-30T08:37:13;3.75;;;2.65;;
28653;SDS011;24320;56.980;24.336;2023-07-30T08:39:40;5.68;;;2.47;;
28653;SDS011;24320;56.980;24.336;2023-07-30T08:42:07;5.22;;;2.70;;
28653;SDS011;24320;56.980;24.336;2023-07-30T08:44:34;4.50;;;2.95;;
28653;SDS011;24320;56.980;24.336;2023-07-30T08:47:01;6.93;;;2.60;;
28653;SDS011;24320;56.980;24.336;2023-07-30T08:49:30;4.97;;;3.00;;
28653;SDS011;24320;56.980;24.336;2023-07-30T08:51:59;4.90;;;3.08;;
28653;SDS011;24320;56.980;24.336;2023-07-30T08:54:31;5.05;;;3.08;;
28653;SDS011;24320;56.980;24.336;2023-07-30T08:59:29;6.35;;;2.92;;
28653;SDS011;24320;56.980;24.336;2023-07-30T09:01:59;6.90;;;3.03;;
28653;SDS011;24320;56.980;24.336;2023-07-30T09:04:28;4.32;;;2.90;;
28653;SDS011;24320;56.980;24.336;2023-07-30T09:07:00;4.07;;;2.75;;
28653;SDS011;24320;56.980;24.336;2023-07-30T09:09:27;4.32;;;2.90;;
28653;SDS011;24320;56.980;24.336;2023-07-30T09:11:54;4.32;;;3.00;;
28653;SDS011;24320;56.980;24.336;2023-07-30T09:14:21;4.88;;;2.70;;
28653;SDS011;24320;56.980;24.336;2023-07-30T09:16:51;10.48;;;2.80;;
28653;SDS011;24320;56.980;24.336;2023-07-30T09:19:23;9.75;;;2.88;;
28653;SDS011;24320;56.980;24.336;2023-07-30T09:21:50;5.13;;;3.33;;
28653;SDS011;24320;56.980;24.336;2023-07-30T09:24:21;5.15;;;2.95;;
28653;SDS011;24320;56.980;24.336;2023-07-30T09:29:15;5.55;;;3.10;;
28653;SDS011;24320;56.980;24.336;2023-07-30T09:31:43;5.32;;;2.85;;
28653;SDS011;24320;56.980;24.336;2023-07-30T09:34:15;4.95;;;3.22;;
28653;SDS011;24320;56.980;24.336;2023-07-30T09:36:44;6.63;;;3.15;;
28653;SDS011;24320;56.980;24.336;2023-07-30T09:39:15;5.45;;;3.33;;
28653;SDS011;24320;56.980;24.336;2023-07-30T09:41:49;4.50;;;3.08;;
28653;SDS011;24320;56.980;24.336;2023-07-30T09:44:18;7.47;;;3.13;;
28653;SDS011;24320;56.980;24.336;2023-07-30T09:46:47;4.45;;;2.90;;
28653;SDS011;24320;56.980;24.336;2023-07-30T09:49:15;3.55;;;3.00;;
28653;SDS011;24320;56.980;24.336;2023-07-30T09:51:43;6.57;;;2.65;;
28653;SDS011;24320;56.980;24.336;2023-07-30T09:54:12;3.95;;;3.33;;
28653;SDS011;24320;56.980;24.336;2023-07-30T09:56:41;4.57;;;3.08;;
28653;SDS011;24320;56.980;24.336;2023-07-30T09:59:09;4.57;;;3.08;;
28653;SDS011;24320;56.980;24.336;2023-07-30T10:01:38;5.85;;;3.15;;
28653;SDS011;24320;56.980;24.336;2023-07-30T10:04:12;3.65;;;3.05;;
28653;SDS011;24320;56.980;24.336;2023-07-30T10:06:47;5.55;;;3.05;;
28653;SDS011;24320;56.980;24.336;2023-07-30T10:09:25;4.50;;;2.72;;
28653;SDS011;24320;56.980;24.336;2023-07-30T10:11:56;7.35;;;3.45;;
28653;SDS011;24320;56.980;24.336;2023-07-30T10:14:25;4.15;;;2.65;;
28653;SDS011;24320;56.980;24.336;2023-07-30T10:16:53;4.47;;;3.35;;
28653;SDS011;24320;56.980;24.336;2023-07-30T10:19:25;30.67;;;13.55;;
28653;SDS011;24320;56.980;24.336;2023-07-30T10:24:23;13.60;;;7.40;;
28653;SDS011;24320;56.980;24.336;2023-07-30T10:26:53;5.68;;;3.28;;
28653;SDS011;24320;56.980;24.336;2023-07-30T10:29:24;5.78;;;2.95;;
28653;SDS011;24320;56.980;24.336;2023-07-30T10:31:54;4.47;;;3.28;;
28653;SDS011;24320;56.980;24.336;2023-07-30T10:34:26;5.30;;;3.28;;
28653;SDS011;24320;56.980;24.336;2023-07-30T10:37:09;6.93;;;3.15;;
28653;SDS011;24320;56.980;24.336;2023-07-30T10:39:36;4.57;;;3.33;;
28653;SDS011;24320;56.980;24.336;2023-07-30T10:42:03;4.43;;;3.15;;
28653;SDS011;24320;56.980;24.336;2023-07-30T10:44:32;5.18;;;3.00;;
28653;SDS011;24320;56.980;24.336;2023-07-30T10:47:01;3.80;;;3.35;;
28653;SDS011;24320;56.980;24.336;2023-07-30T10:49:35;5.32;;;3.10;;
28653;SDS011;24320;56.980;24.336;2023-07-30T10:52:07;4.13;;;3.25;;
28653;SDS011;24320;56.980;24.336;2023-07-30T12:02:16;6.25;;;3.35;;
28653;SDS011;24320;56.980;24.336;2023-07-30T12:04:45;6.30;;;4.05;;
28653;SDS011;24320;56.980;24.336;2023-07-30T12:07:27;5.70;;;3.95;;
28653;SDS011;24320;56.980;24.336;2023-07-30T12:09:54;5.82;;;4.13;;
28653;SDS011;24320;56.980;24.336;2023-07-30T12:12:24;7.10;;;4.32;;
28653;SDS011;24320;56.980;24.336;2023-07-30T12:14:53;8.98;;;4.65;;
28653;SDS011;24320;56.980;24.336;2023-07-30T12:17:21;6.93;;;4.50;;
28653;SDS011;24320;56.980;24.336;2023-07-30T12:19:49;6.35;;;4.45;;
28653;SDS011;24320;56.980;24.336;2023-07-30T12:22:16;5.80;;;4.30;;
28653;SDS011;24320;56.980;24.336;2023-07-30T12:24:43;5.50;;;4.00;;
28653;SDS011;24320;56.980;24.336;2023-07-30T12:27:10;7.15;;;4.30;;
28653;SDS011;24320;56.980;24.336;2023-07-30T12:29:37;7.18;;;4.22;;
28653;SDS011;24320;56.980;24.336;2023-07-30T12:32:04;6.18;;;4.30;;
28653;SDS011;24320;56.980;24.336;2023-07-30T12:34:31;7.68;;;4.22;;
28653;SDS011;24320;56.980;24.336;2023-07-30T12:36:58;6.97;;;3.75;;
28653;SDS011;24320;56.980;24.336;2023-07-30T12:39:26;8.00;;;3.95;;
28653;SDS011;24320;56.980;24.336;2023-07-30T12:41:53;7.40;;;4.03;;
28653;SDS011;24320;56.980;24.336;2023-07-30T12:44:20;5.88;;;4.10;;
28653;SDS011;24320;56.980;24.336;2023-07-30T12:46:47;6.03;;;4.10;;
28653;SDS011;24320;56.980;24.336;2023-07-30T12:49:14;6.35;;;4.13;;
28653;SDS011;24320;56.980;24.336;2023-07-30T12:51:41;5.57;;;4.00;;
28653;SDS011;24320;56.980;24.336;2023-07-30T12:54:08;6.88;;;4.38;;
28653;SDS011;24320;56.980;24.336;2023-07-30T12:56:35;6.43;;;4.10;;
28653;SDS011;24320;56.980;24.336;2023-07-30T12:59:03;6.88;;;4.13;;
28653;SDS011;24320;56.980;24.336;2023-07-30T13:01:30;6.38;;;4.30;;
28653;SDS011;24320;56.980;24.336;2023-07-30T13:03:57;7.93;;;4.90;;
28653;SDS011;24320;56.980;24.336;2023-07-30T13:06:24;5.05;;;4.10;;
28653;SDS011;24320;56.980;24.336;2023-07-30T13:08:51;8.38;;;4.53;;
28653;SDS011;24320;56.980;24.336;2023-07-30T13:11:20;5.35;;;4.05;;
28653;SDS011;24320;56.980;24.336;2023-07-30T13:13:47;6.22;;;4.15;;
28653;SDS011;24320;56.980;24.336;2023-07-30T13:16:14;10.80;;;3.95;;
28653;SDS011;24320;56.980;24.336;2023-07-30T13:18:41;6.32;;;4.43;;
28653;SDS011;24320;56.980;24.336;2023-07-30T13:21:08;6.28;;;3.90;;
28653;SDS011;24320;56.980;24.336;2023-07-30T13:23:35;7.70;;;4.28;;
28653;SDS011;24320;56.980;24.336;2023-07-30T13:26:02;7.00;;;4.07;;
28653;SDS011;24320;56.980;24.336;2023-07-30T13:28:29;5.43;;;4.63;;
28653;SDS011;24320;56.980;24.336;2023-07-30T13:30:56;5.38;;;4.22;;
28653;SDS011;24320;56.980;24.336;2023-07-30T13:33:23;6.10;;;4.63;;
28653;SDS011;24320;56.980;24.336;2023-07-30T13:35:51;6.90;;;4.65;;
28653;SDS011;24320;56.980;24.336;2023-07-30T13:38:18;8.05;;;4.78;;
28653;SDS011;24320;56.980;24.336;2023-07-30T13:40:48;8.85;;;5.57;;
28653;SDS011;24320;56.980;24.336;2023-07-30T13:43:15;6.85;;;4.97;;
28653;SDS011;24320;56.980;24.336;2023-07-30T13:45:42;8.88;;;5.00;;
28653;SDS011;24320;56.980;24.336;2023-07-30T13:48:09;7.60;;;4.97;;
28653;SDS011;24320;56.980;24.336;2023-07-30T13:50:36;6.00;;;4.70;;
28653;SDS011;24320;56.980;24.336;2023-07-30T13:53:03;7.63;;;4.75;;
28653;SDS011;24320;56.980;24.336;2023-07-30T13:55:30;6.63;;;4.25;;
28653;SDS011;24320;56.980;24.336;2023-07-30T13:57:58;6.75;;;4.88;;
28653;SDS011;24320;56.980;24.336;2023-07-30T14:00:25;5.78;;;4.50;;
28653;SDS011;24320;56.980;24.336;2023-07-30T14:02:52;6.10;;;4.72;;
28653;SDS011;24320;56.980;24.336;2023-07-30T14:05:19;5.72;;;4.45;;
28653;SDS011;24320;56.980;24.336;2023-07-30T14:07:46;5.07;;;3.92;;
28653;SDS011;24320;56.980;24.336;2023-07-30T14:10:14;7.05;;;4.20;;
28653;SDS011;24320;56.980;24.336;2023-07-30T14:15:12;5.35;;;4.45;;
28653;SDS011;24320;56.980;24.336;2023-07-30T14:17:41;7.32;;;4.40;;
28653;SDS011;24320;56.980;24.336;2023-07-30T14:20:08;4.97;;;3.85;;
28653;SDS011;24320;56.980;24.336;2023-07-30T14:22:35;6.00;;;3.83;;
28653;SDS011;24320;56.980;24.336;2023-07-30T14:25:02;6.70;;;4.50;;
28653;SDS011;24320;56.980;24.336;2023-07-30T14:27:30;5.68;;;4.10;;
28653;SDS011;24320;56.980;24.336;2023-07-30T14:29:57;5.55;;;4.15;;
28653;SDS011;24320;56.980;24.336;2023-07-30T14:32:24;6.50;;;4.82;;
28653;SDS011;24320;56.980;24.336;2023-07-30T14:34:51;7.40;;;4.45;;
28653;SDS011;24320;56.980;24.336;2023-07-30T14:37:18;8.30;;;4.80;;
28653;SDS011;24320;56.980;24.336;2023-07-30T14:39:45;8.38;;;5.10;;
28653;SDS011;24320;56.980;24.336;2023-07-30T14:42:12;7.10;;;5.00;;
28653;SDS011;24320;56.980;24.336;2023-07-30T14:44:39;7.07;;;5.15;;
28653;SDS011;24320;56.980;24.336;2023-07-30T14:47:06;9.98;;;4.90;;
28653;SDS011;24320;56.980;24.336;2023-07-30T14:49:34;7.88;;;5.25;;
28653;SDS011;24320;56.980;24.336;2023-07-30T14:52:02;5.82;;;4.70;;
28653;SDS011;24320;56.980;24.336;2023-07-30T14:54:30;6.82;;;5.00;;
28653;SDS011;24320;56.980;24.336;2023-07-30T14:56:57;7.72;;;5.28;;
28653;SDS011;24320;56.980;24.336;2023-07-30T14:59:24;6.60;;;4.82;;
28653;SDS011;24320;56.980;24.336;2023-07-30T15:01:51;8.32;;;4.82;;
28653;SDS011;24320;56.980;24.336;2023-07-30T15:04:18;5.70;;;4.55;;
28653;SDS011;24320;56.980;24.336;2023-07-30T15:06:45;9.70;;;4.60;;
28653;SDS011;24320;56.980;24.336;2023-07-30T15:09:13;12.43;;;5.15;;
28653;SDS011;24320;56.980;24.336;2023-07-30T15:11:40;5.95;;;4.78;;
28653;SDS011;24320;56.980;24.336;2023-07-30T15:14:07;5.70;;;4.80;;
28653;SDS011;24320;56.980;24.336;2023-07-30T15:16:34;9.75;;;4.88;;
28653;SDS011;24320;56.980;24.336;2023-07-30T16:20:33;6.00;;;4.90;;
28653;SDS011;24320;56.980;24.336;2023-07-30T16:23:00;9.18;;;5.90;;
28653;SDS011;24320;56.980;24.336;2023-07-30T16:25:27;7.07;;;5.47;;
28653;SDS011;24320;56.980;24.336;2023-07-30T16:27:54;6.70;;;4.97;;
28653;SDS011;24320;56.980;24.336;2023-07-30T16:30:21;7.50;;;5.43;;
28653;SDS011;24320;56.980;24.336;2023-07-30T16:32:53;7.68;;;4.85;;
28653;SDS011;24320;56.980;24.336;2023-07-30T16:35:20;7.85;;;5.07;;
28653;SDS011;24320;56.980;24.336;2023-07-30T16:37:47;6.82;;;5.10;;
28653;SDS011;24320;56.980;24.336;2023-07-30T16:40:14;8.75;;;5.65;;
28653;SDS011;24320;56.980;24.336;2023-07-30T16:42:41;9.13;;;6.50;;
28653;SDS011;24320;56.980;24.336;2023-07-30T16:45:08;8.13;;;5.80;;
28653;SDS011;24320;56.980;24.336;2023-07-30T16:47:35;10.05;;;5.35;;
28653;SDS011;24320;56.980;24.336;2023-07-30T16:50:02;12.32;;;5.32;;
28653;SDS011;24320;56.980;24.336;2023-07-30T16:52:29;6.15;;;4.88;;
28653;SDS011;24320;56.980;24.336;2023-07-30T16:54:56;6.38;;;4.90;;